createdAt,value
2022-08-18T00:01:24.109Z,23.92
2022-08-18T00:03:56.898Z,22.05
2022-08-18T00:06:30.601Z,20.27
2022-08-18T00:08:59.797Z,20.15
2022-08-18T00:11:28.068Z,18.00
2022-08-18T00:14:09.380Z,19.45
2022-08-18T00:16:36.347Z,19.55
2022-08-18T00:19:08.693Z,20.35
2022-08-18T00:21:36.593Z,19.15
2022-08-18T00:24:04.050Z,20.47
2022-08-18T00:26:36.277Z,20.50
2022-08-18T00:29:04.280Z,21.95
2022-08-18T00:31:31.514Z,19.63
2022-08-18T00:33:58.368Z,17.52
2022-08-18T00:36:25.275Z,16.30
2022-08-18T00:38:52.069Z,21.67
2022-08-18T00:41:18.990Z,18.98
2022-08-18T00:43:51.274Z,20.90
2022-08-18T00:46:19.720Z,18.95
2022-08-18T00:48:48.565Z,20.30
2022-08-18T00:51:23.513Z,20.75
2022-08-18T00:54:14.648Z,24.45
2022-08-18T00:56:55.511Z,18.75
2022-08-18T00:59:47.944Z,17.90
2022-08-18T01:02:37.725Z,21.07
2022-08-18T01:05:13.805Z,21.27
2022-08-18T01:07:46.979Z,20.05
2022-08-18T01:10:17.058Z,19.42
2022-08-18T01:12:49.570Z,20.40
2022-08-18T01:15:29.132Z,19.97
2022-08-18T01:18:22.879Z,21.65
2022-08-18T01:21:16.581Z,21.88
2022-08-18T01:23:44.965Z,20.75
2022-08-18T01:26:12.809Z,22.20
2022-08-18T01:28:42.123Z,22.07
2022-08-18T01:31:10.134Z,22.27
2022-08-18T01:33:42.591Z,20.05
2022-08-18T01:36:19.834Z,18.42
2022-08-18T01:38:53.404Z,23.52
2022-08-18T01:41:29.587Z,20.00
2022-08-18T01:43:59.070Z,18.90
2022-08-18T01:46:27.595Z,19.88
2022-08-18T01:48:54.498Z,21.65
2022-08-18T01:51:34.703Z,19.27
2022-08-18T01:54:09.690Z,19.70
2022-08-18T01:56:37.064Z,20.27
2022-08-18T01:59:06.080Z,21.35
2022-08-18T02:01:37.617Z,25.38
2022-08-18T02:04:33.876Z,22.77
2022-08-18T02:07:01.222Z,23.93
2022-08-18T02:09:31.014Z,22.92
2022-08-18T02:11:57.890Z,22.13
2022-08-18T02:14:27.004Z,23.83
2022-08-18T02:17:02.106Z,24.55
2022-08-18T02:19:42.434Z,25.33
2022-08-18T02:22:11.763Z,24.33
2022-08-18T02:24:39.195Z,27.52
2022-08-18T02:27:07.928Z,21.48
2022-08-18T02:29:35.399Z,26.15
2022-08-18T02:32:03.068Z,22.87
2022-08-18T02:34:29.810Z,24.83
2022-08-18T02:36:56.577Z,22.40
2022-08-18T02:39:23.382Z,23.48
2022-08-18T02:41:51.521Z,25.83
2022-08-18T02:44:18.334Z,26.43
2022-08-18T02:46:45.130Z,26.58
2022-08-18T02:49:12.732Z,29.15
2022-08-18T02:51:39.708Z,27.88
2022-08-18T02:54:09.435Z,31.83
2022-08-18T02:56:41.599Z,28.37
2022-08-18T02:59:16.034Z,32.10
2022-08-18T03:01:46.746Z,27.50
2022-08-18T03:04:17.537Z,31.98
2022-08-18T03:06:45.519Z,29.10
2022-08-18T03:09:15.692Z,30.77
2022-08-18T03:11:43.555Z,32.63
2022-08-18T03:14:11.497Z,32.30
2022-08-18T03:16:53.330Z,28.38
2022-08-18T03:19:23.241Z,30.65
2022-08-18T03:21:50.914Z,32.10
2022-08-18T03:24:22.992Z,31.02
2022-08-18T03:26:52.373Z,33.50
2022-08-18T03:29:20.830Z,32.45
2022-08-18T03:31:48.846Z,31.30
2022-08-18T03:34:19.704Z,30.67
2022-08-18T03:36:48.383Z,30.67
2022-08-18T03:39:15.162Z,30.45
2022-08-18T03:41:59.171Z,30.35
2022-08-18T03:44:33.140Z,31.95
2022-08-18T03:47:03.181Z,29.10
2022-08-18T03:49:30.974Z,28.63
2022-08-18T03:52:00.623Z,34.55
2022-08-18T03:54:28.180Z,29.02
2022-08-18T03:56:55.967Z,29.38
2022-08-18T03:59:26.086Z,32.83
2022-08-18T04:01:55.068Z,28.25
2022-08-18T04:04:25.367Z,30.00
2022-08-18T04:06:56.951Z,31.95
2022-08-18T04:09:24.807Z,31.23
2022-08-18T04:11:52.571Z,30.13
2022-08-18T04:14:24.820Z,30.45
2022-08-18T04:16:52.501Z,31.75
2022-08-18T04:19:26.221Z,35.17
2022-08-18T04:21:54.560Z,30.70
2022-08-18T04:24:21.622Z,32.73
2022-08-18T04:26:49.959Z,32.45
2022-08-18T04:29:21.091Z,32.47
2022-08-18T04:31:48.471Z,35.13
2022-08-18T04:34:15.694Z,30.05
2022-08-18T04:36:43.064Z,28.67
2022-08-18T04:39:11.660Z,28.45
2022-08-18T04:41:41.019Z,29.13
2022-08-18T04:44:09.754Z,27.58
2022-08-18T04:46:40.053Z,30.15
2022-08-18T04:49:09.307Z,28.70
2022-08-18T04:52:30.879Z,29.08
2022-08-18T04:54:26.397Z,26.83
2022-08-18T04:56:53.202Z,24.08
2022-08-18T04:59:20.451Z,24.80
2022-08-18T05:01:47.831Z,25.47
2022-08-18T05:04:17.296Z,25.42
2022-08-18T05:06:45.203Z,24.92
2022-08-18T05:09:16.688Z,27.65
2022-08-18T05:11:51.042Z,27.48
2022-08-18T05:14:18.576Z,28.90
2022-08-18T05:16:48.593Z,24.77
2022-08-18T05:19:23.141Z,32.65
2022-08-18T05:21:51.412Z,25.58
2022-08-18T05:24:21.425Z,26.27
2022-08-18T05:26:49.110Z,25.67
2022-08-18T05:29:19.069Z,26.98
2022-08-18T05:31:47.520Z,27.08
2022-08-18T05:34:14.364Z,26.42
2022-08-18T05:37:15.191Z,27.65
2022-08-18T05:39:57.745Z,27.93
2022-08-18T05:42:29.030Z,27.45
2022-08-18T05:44:56.235Z,27.27
2022-08-18T05:47:29.565Z,26.30
2022-08-18T05:50:02.812Z,31.45
2022-08-18T05:52:43.637Z,26.57
2022-08-18T05:55:35.998Z,22.63
2022-08-18T05:58:12.699Z,22.90
2022-08-18T06:00:40.486Z,24.55
2022-08-18T06:03:19.792Z,25.55
2022-08-18T06:05:54.601Z,21.97
2022-08-18T06:08:25.636Z,25.25
2022-08-18T06:10:52.486Z,24.52
2022-08-18T06:13:21.178Z,22.42
2022-08-18T06:15:52.500Z,24.67
2022-08-18T06:18:32.330Z,24.90
2022-08-18T06:21:10.140Z,19.83
2022-08-18T06:24:01.588Z,21.30
2022-08-18T06:26:34.500Z,19.65
2022-08-18T06:29:16.368Z,22.42
2022-08-18T06:31:53.346Z,16.93
2022-08-18T06:34:42.566Z,21.52
2022-08-18T06:37:33.622Z,20.10
2022-08-18T06:40:02.140Z,20.90
2022-08-18T06:42:32.073Z,15.68
2022-08-18T06:45:02.923Z,15.67
2022-08-18T06:47:53.443Z,15.35
2022-08-18T06:50:30.444Z,12.65
2022-08-18T06:53:03.882Z,13.10
2022-08-18T06:55:38.134Z,11.77
2022-08-18T06:58:21.398Z,14.03
2022-08-18T07:00:51.900Z,12.18
2022-08-18T07:03:41.238Z,11.90
2022-08-18T07:06:25.773Z,11.35
2022-08-18T07:08:55.464Z,9.68
2022-08-18T07:11:28.474Z,10.47
2022-08-18T07:14:17.424Z,10.38
2022-08-18T07:16:58.174Z,12.05
2022-08-18T07:19:29.762Z,11.32
2022-08-18T07:22:17.259Z,13.23
2022-08-18T07:24:47.488Z,11.43
2022-08-18T07:27:39.101Z,12.90
2022-08-18T07:30:26.783Z,13.48
2022-08-18T07:33:25.494Z,9.63
2022-08-18T07:36:03.323Z,10.73
2022-08-18T07:38:43.805Z,11.20
2022-08-18T07:41:17.995Z,9.35
2022-08-18T07:44:01.784Z,9.70
2022-08-18T07:46:38.388Z,8.88
2022-08-18T07:49:12.589Z,8.82
2022-08-18T07:52:44.175Z,8.63
2022-08-18T07:55:24.558Z,8.15
2022-08-18T07:58:06.596Z,11.13
2022-08-18T08:01:05.656Z,9.48
2022-08-18T08:04:09.722Z,10.23
2022-08-18T08:07:26.241Z,10.40
2022-08-18T08:10:05.206Z,10.75
2022-08-18T08:13:09.648Z,10.98
2022-08-18T08:16:00.447Z,8.88
2022-08-18T08:18:41.970Z,10.00
2022-08-18T08:21:17.904Z,12.63
2022-08-18T08:23:51.445Z,12.25
2022-08-18T08:26:24.810Z,13.65
2022-08-18T08:29:06.318Z,13.85
2022-08-18T08:31:48.136Z,11.05
2022-08-18T08:34:36.121Z,8.77
2022-08-18T08:37:16.736Z,10.27
2022-08-18T08:39:47.392Z,9.35
2022-08-18T08:42:40.507Z,10.50
2022-08-18T08:45:18.020Z,11.43
2022-08-18T08:48:09.934Z,10.30
2022-08-18T08:50:45.170Z,13.80
2022-08-18T08:53:30.079Z,12.48
2022-08-18T08:56:02.642Z,11.23
2022-08-18T08:58:38.138Z,11.25
2022-08-18T09:01:06.080Z,11.93
2022-08-18T09:03:43.555Z,9.75
2022-08-18T09:06:35.790Z,9.45
2022-08-18T09:09:36.982Z,8.20
2022-08-18T09:12:25.546Z,10.68
2022-08-18T09:15:02.974Z,7.37
2022-08-18T09:18:05.131Z,7.32
2022-08-18T09:20:59.595Z,5.55
2022-08-18T09:23:39.627Z,8.40
2022-08-18T09:26:24.065Z,5.03
2022-08-18T09:28:56.529Z,4.00
2022-08-18T09:31:25.714Z,7.18
2022-08-18T09:34:31.837Z,4.88
2022-08-18T09:37:13.994Z,6.78
2022-08-18T09:40:11.025Z,6.07
2022-08-18T09:42:50.629Z,5.40
2022-08-18T09:48:31.871Z,7.25
2022-08-18T09:51:20.871Z,5.95
2022-08-18T09:53:52.311Z,5.63
2022-08-18T09:56:54.144Z,6.70
2022-08-18T09:59:35.053Z,8.30
2022-08-18T10:02:33.726Z,6.93
2022-08-18T10:05:15.961Z,8.10
2022-08-18T10:07:48.796Z,8.25
2022-08-18T10:11:02.386Z,8.27
2022-08-18T10:13:33.254Z,8.75
2022-08-18T10:16:23.843Z,6.80
2022-08-18T10:18:56.915Z,7.60
2022-08-18T10:21:31.336Z,4.75
2022-08-18T10:26:59.044Z,4.65
2022-08-18T10:29:28.975Z,4.75
2022-08-18T10:31:59.064Z,5.70
2022-08-18T10:34:52.088Z,3.97
2022-08-18T10:37:36.165Z,5.13
2022-08-18T10:40:09.501Z,5.05
2022-08-18T10:42:44.481Z,4.72
2022-08-18T10:45:25.450Z,5.28
2022-08-18T10:51:23.604Z,5.63
2022-08-18T10:54:03.118Z,5.45
2022-08-18T10:56:35.786Z,4.30
2022-08-18T11:02:02.540Z,4.95
2022-08-18T11:07:28.733Z,6.53
2022-08-18T11:10:13.229Z,5.35
2022-08-18T11:13:11.267Z,5.70
2022-08-18T11:16:02.967Z,5.15
2022-08-18T11:21:43.250Z,5.90
2022-08-18T11:24:19.363Z,6.43
2022-08-18T11:26:57.327Z,5.43
2022-08-18T11:29:33.275Z,5.97
2022-08-18T11:32:19.831Z,6.27
2022-08-18T11:35:16.153Z,5.28
2022-08-18T11:37:53.268Z,5.30
2022-08-18T11:43:21.332Z,5.57
2022-08-18T11:45:56.946Z,5.43
2022-08-18T11:48:52.956Z,5.15
2022-08-18T11:51:25.449Z,4.45
2022-08-18T11:54:00.782Z,5.15
2022-08-18T11:56:32.319Z,4.57
2022-08-18T11:59:52.826Z,4.37
2022-08-18T12:02:21.271Z,4.78
2022-08-18T12:04:56.813Z,5.20
2022-08-18T12:07:35.139Z,4.95
2022-08-18T12:10:26.176Z,4.07
2022-08-18T12:12:55.865Z,4.33
2022-08-18T12:15:44.216Z,3.20
2022-08-18T12:18:26.464Z,3.05
2022-08-18T12:20:58.673Z,2.78
2022-08-18T12:23:26.050Z,2.58
2022-08-18T12:25:52.991Z,4.57
2022-08-18T12:28:22.097Z,5.32
2022-08-18T12:30:57.038Z,3.65
2022-08-18T12:33:25.533Z,3.83
2022-08-18T12:36:05.198Z,5.22
2022-08-18T12:38:33.247Z,4.33
2022-08-18T12:41:05.041Z,5.03
2022-08-18T12:43:32.495Z,4.30
2022-08-18T12:46:01.055Z,3.50
2022-08-18T12:48:30.310Z,3.50
2022-08-18T12:53:59.279Z,3.63
2022-08-18T12:56:32.956Z,6.00
2022-08-18T12:59:05.168Z,3.28
2022-08-18T13:01:33.292Z,3.50
2022-08-18T13:04:11.674Z,4.13
2022-08-18T13:07:06.021Z,5.05
2022-08-18T13:09:53.065Z,3.28
2022-08-18T13:12:21.960Z,3.53
2022-08-18T13:14:50.866Z,3.55
2022-08-18T13:17:28.963Z,3.90
2022-08-18T13:20:27.182Z,4.47
2022-08-18T13:22:54.668Z,3.58
2022-08-18T13:25:32.199Z,3.28
2022-08-18T13:28:02.080Z,3.55
2022-08-18T13:30:32.095Z,4.77
2022-08-18T13:33:06.059Z,3.00
2022-08-18T13:35:48.378Z,4.43
2022-08-18T13:38:21.920Z,4.50
2022-08-18T13:40:54.483Z,3.75
2022-08-18T13:43:27.143Z,4.00
2022-08-18T13:45:56.325Z,4.72
2022-08-18T13:48:25.363Z,3.67
2022-08-18T13:50:58.424Z,3.63
2022-08-18T13:53:28.580Z,3.70
2022-08-18T13:55:59.686Z,6.17
2022-08-18T13:58:28.294Z,5.18
2022-08-18T14:01:22.488Z,4.63
2022-08-18T14:03:50.019Z,4.30
2022-08-18T14:06:22.811Z,4.88
2022-08-18T14:08:53.164Z,5.47
2022-08-18T14:11:32.945Z,6.13
2022-08-18T14:14:01.801Z,4.20
2022-08-18T14:16:28.845Z,5.22
2022-08-18T14:19:14.216Z,5.43
2022-08-18T14:22:02.956Z,4.53
2022-08-18T14:24:50.506Z,4.10
2022-08-18T14:27:24.143Z,3.63
2022-08-18T14:29:53.420Z,5.63
2022-08-18T14:32:29.568Z,3.83
2022-08-18T14:35:26.955Z,5.97
2022-08-18T14:37:49.551Z,4.50
2022-08-18T14:40:18.774Z,4.35
2022-08-18T14:42:55.015Z,4.28
2022-08-18T14:45:28.020Z,15.30
2022-08-18T14:48:06.731Z,4.20
2022-08-18T14:50:35.898Z,4.00
2022-08-18T14:53:04.333Z,3.85
2022-08-18T14:55:31.156Z,4.20
2022-08-18T14:57:58.627Z,4.05
2022-08-18T15:00:27.691Z,5.10
2022-08-18T15:02:54.796Z,4.95
2022-08-18T15:05:24.421Z,4.85
2022-08-18T15:07:52.792Z,4.50
2022-08-18T15:10:23.492Z,4.35
2022-08-18T15:12:54.926Z,4.40
2022-08-18T15:15:22.466Z,4.28
2022-08-18T15:17:52.612Z,4.60
2022-08-18T15:20:28.646Z,3.65
2022-08-18T15:23:22.893Z,5.63
2022-08-18T15:25:56.567Z,4.13
2022-08-18T15:28:26.348Z,4.55
2022-08-18T15:31:16.777Z,4.93
2022-08-18T15:33:40.178Z,6.15
2022-08-18T15:36:10.243Z,3.95
2022-08-18T15:38:37.350Z,6.67
2022-08-18T15:41:06.104Z,4.93
2022-08-18T15:43:45.981Z,3.67
2022-08-18T15:46:16.738Z,4.72
2022-08-18T15:48:44.195Z,3.90
2022-08-18T15:51:12.188Z,4.70
2022-08-18T15:53:44.534Z,4.75
2022-08-18T15:56:25.946Z,4.97
2022-08-18T15:58:53.200Z,4.25
2022-08-18T16:01:30.328Z,5.25
2022-08-18T16:04:01.171Z,3.40
2022-08-18T16:06:32.414Z,5.20
2022-08-18T16:09:00.673Z,4.60
2022-08-18T16:11:29.568Z,4.13
2022-08-18T16:14:00.812Z,3.33
2022-08-18T16:16:29.373Z,4.10
2022-08-18T16:19:03.969Z,4.03
2022-08-18T16:21:30.969Z,3.75
2022-08-18T16:23:58.303Z,4.90
2022-08-18T16:26:25.239Z,4.53
2022-08-18T16:28:52.516Z,4.10
2022-08-18T16:31:24.984Z,4.00
2022-08-18T16:33:53.889Z,4.68
2022-08-18T16:36:25.144Z,4.15
2022-08-18T16:38:54.097Z,4.57
2022-08-18T16:41:26.294Z,5.53
2022-08-18T16:43:53.221Z,4.07
2022-08-18T16:46:27.158Z,3.70
2022-08-18T16:48:58.376Z,4.75
2022-08-18T16:51:27.982Z,4.15
2022-08-18T16:53:55.406Z,4.37
2022-08-18T16:56:24.663Z,4.40
2022-08-18T16:59:10.982Z,3.95
2022-08-18T17:01:57.332Z,5.35
2022-08-18T17:04:34.342Z,3.95
2022-08-18T17:07:04.811Z,5.63
2022-08-18T17:09:33.186Z,4.40
2022-08-18T17:12:01.002Z,3.03
2022-08-18T17:14:30.876Z,4.35
2022-08-18T17:16:58.687Z,3.70
2022-08-18T17:19:30.028Z,4.40
2022-08-18T17:21:57.002Z,3.53
2022-08-18T17:24:31.776Z,3.92
2022-08-18T17:27:26.476Z,4.18
2022-08-18T17:30:06.952Z,4.80
2022-08-18T17:32:49.707Z,4.43
2022-08-18T17:35:23.511Z,3.75
2022-08-18T17:38:26.943Z,3.25
2022-08-18T17:40:56.312Z,4.15
2022-08-18T17:43:35.210Z,3.60
2022-08-18T17:46:28.593Z,5.07
2022-08-18T17:49:24.495Z,4.38
2022-08-18T17:51:55.391Z,3.97
2022-08-18T17:54:36.502Z,3.47
2022-08-18T17:57:28.003Z,3.22
2022-08-18T18:00:15.417Z,3.50
2022-08-18T18:02:47.863Z,4.32
2022-08-18T18:05:19.060Z,4.07
2022-08-18T18:07:51.758Z,4.25
2022-08-18T18:10:56.643Z,5.03
2022-08-18T18:13:33.594Z,3.83
2022-08-18T18:16:20.833Z,5.35
2022-08-18T18:19:01.725Z,5.15
2022-08-18T18:22:00.504Z,3.53
2022-08-18T18:24:23.651Z,4.50
2022-08-18T18:26:51.978Z,5.00
2022-08-18T18:29:30.689Z,6.75
2022-08-18T18:32:25.742Z,7.20
2022-08-18T18:35:17.965Z,4.45
2022-08-18T18:38:04.820Z,3.35
2022-08-18T18:40:37.008Z,4.27
2022-08-18T18:43:28.912Z,4.20
2022-08-18T18:46:18.348Z,4.45
2022-08-18T18:49:30.778Z,5.65
2022-08-18T18:52:11.195Z,5.20
2022-08-18T18:55:03.012Z,7.47
2022-08-18T18:57:35.374Z,4.75
2022-08-18T19:00:30.171Z,4.90
2022-08-18T19:03:06.796Z,5.20
2022-08-18T19:06:14.093Z,7.43
2022-08-18T19:08:59.732Z,4.87
2022-08-18T19:11:52.845Z,4.15
2022-08-18T19:14:28.949Z,5.82
2022-08-18T19:17:04.315Z,4.75
2022-08-18T19:19:49.348Z,3.28
2022-08-18T19:22:22.420Z,6.03
2022-08-18T19:25:29.146Z,3.40
2022-08-18T19:28:18.708Z,3.85
2022-08-18T19:30:49.904Z,6.10
2022-08-18T19:33:29.254Z,4.05
2022-08-18T19:36:19.703Z,3.57
2022-08-18T19:38:49.621Z,4.78
2022-08-18T19:41:21.395Z,5.57
2022-08-18T19:44:06.836Z,4.53
2022-08-18T19:46:47.562Z,3.60
2022-08-18T19:49:33.624Z,3.40
2022-08-18T19:52:46.694Z,4.30
2022-08-18T19:55:33.044Z,4.75
2022-08-18T19:58:20.980Z,4.45
2022-08-18T20:00:57.395Z,3.88
2022-08-18T20:03:51.445Z,4.93
2022-08-18T20:06:33.911Z,4.35
2022-08-18T20:09:23.094Z,5.65
2022-08-18T20:12:13.192Z,4.93
2022-08-18T20:14:45.159Z,4.43
2022-08-18T20:17:16.706Z,5.37
2022-08-18T20:19:52.237Z,3.80
2022-08-18T20:22:24.738Z,6.05
2022-08-18T20:25:06.658Z,4.65
2022-08-18T20:27:37.778Z,4.80
2022-08-18T20:30:19.929Z,4.37
2022-08-18T20:33:17.565Z,5.70
2022-08-18T20:35:52.591Z,4.32
2022-08-18T20:38:38.283Z,4.70
2022-08-18T20:41:23.384Z,4.43
2022-08-18T20:44:04.897Z,6.20
2022-08-18T20:46:44.573Z,4.85
2022-08-18T20:49:37.335Z,4.55
2022-08-18T20:52:15.581Z,5.13
2022-08-18T20:54:57.138Z,7.32
2022-08-18T20:57:27.155Z,6.87
2022-08-18T21:00:27.076Z,7.50
2022-08-18T21:02:59.522Z,5.45
2022-08-18T21:05:38.526Z,5.85
2022-08-18T21:08:13.359Z,7.28
2022-08-18T21:10:53.808Z,6.50
2022-08-18T21:13:40.746Z,5.40
2022-08-18T21:16:13.643Z,6.30
2022-08-18T21:19:00.924Z,6.32
2022-08-18T21:21:31.306Z,6.60
2022-08-18T21:24:00.520Z,6.43
2022-08-18T21:26:29.930Z,6.88
2022-08-18T21:29:06.719Z,5.88
2022-08-18T21:31:44.370Z,6.43
2022-08-18T21:34:28.708Z,7.18
2022-08-18T21:36:58.151Z,6.57
2022-08-18T21:39:25.443Z,6.68
2022-08-18T21:41:55.257Z,7.78
2022-08-18T21:44:23.751Z,6.82
2022-08-18T21:46:51.702Z,7.03
2022-08-18T21:49:25.026Z,6.10
2022-08-18T21:51:52.477Z,6.25
2022-08-18T21:54:22.573Z,5.43
2022-08-18T21:57:18.388Z,5.18
2022-08-18T22:00:14.420Z,5.57
2022-08-18T22:02:41.481Z,5.70
2022-08-18T22:05:11.068Z,7.47
2022-08-18T22:07:46.787Z,8.35
2022-08-18T22:10:47.957Z,5.20
2022-08-18T22:13:45.575Z,5.63
2022-08-18T22:16:36.105Z,6.67
2022-08-18T22:19:06.930Z,7.55
2022-08-18T22:21:41.440Z,8.10
2022-08-18T22:24:19.806Z,9.80
2022-08-18T22:27:07.511Z,6.28
2022-08-18T22:29:54.816Z,6.20
2022-08-18T22:32:22.514Z,6.55
2022-08-18T22:34:50.383Z,7.38
2022-08-18T22:37:23.884Z,6.32
2022-08-18T22:40:10.769Z,6.85
2022-08-18T22:42:38.340Z,6.87
2022-08-18T22:45:09.578Z,7.43
2022-08-18T22:47:42.978Z,8.07
2022-08-18T22:50:12.741Z,6.15
2022-08-18T22:52:43.380Z,6.05
2022-08-18T22:55:12.807Z,7.60
2022-08-18T22:57:42.043Z,8.30
2022-08-18T23:00:14.512Z,6.13
2022-08-18T23:02:42.598Z,7.22
2022-08-18T23:05:10.923Z,7.32
2022-08-18T23:07:37.752Z,6.17
2022-08-18T23:10:08.261Z,6.85
2022-08-18T23:12:46.754Z,6.60
2022-08-18T23:15:15.157Z,7.18
2022-08-18T23:17:43.508Z,6.45
2022-08-18T23:20:17.981Z,6.37
2022-08-18T23:22:47.602Z,6.20
2022-08-18T23:25:14.503Z,7.25
2022-08-18T23:27:42.461Z,6.90
2022-08-18T23:30:09.593Z,6.50
2022-08-18T23:32:36.517Z,6.10
2022-08-18T23:35:04.151Z,6.40
2022-08-18T23:37:31.651Z,6.65
2022-08-18T23:39:58.959Z,7.15
2022-08-18T23:42:25.900Z,7.72
2022-08-18T23:44:52.695Z,7.43
2022-08-18T23:47:20.576Z,7.22
2022-08-18T23:49:47.366Z,7.40
2022-08-18T23:52:14.176Z,7.35
2022-08-18T23:54:41.042Z,6.60
2022-08-18T23:57:07.912Z,6.70
2022-08-18T23:59:34.809Z,8.07
